createdAt,value
2022-11-01T00:02:18.028Z,101042.66
2022-11-01T00:04:48.855Z,101025.47
2022-11-01T00:07:18.173Z,101055.66
2022-11-01T00:09:47.868Z,101066.00
2022-11-01T00:12:17.283Z,101021.16
2022-11-01T00:14:46.667Z,101072.28
2022-11-01T00:17:15.902Z,101050.25
2022-11-01T00:19:44.784Z,101062.84
2022-11-01T00:22:15.386Z,101057.94
2022-11-01T00:24:44.761Z,101065.56
2022-11-01T00:27:13.719Z,101035.47
2022-11-01T00:29:42.451Z,101061.09
2022-11-01T00:32:12.764Z,101039.56
2022-11-01T00:34:41.767Z,101057.78
2022-11-01T00:37:10.682Z,101066.56
2022-11-01T00:39:41.021Z,100954.78
2022-11-01T00:42:10.247Z,101010.03
2022-11-01T00:44:39.525Z,101068.75
2022-11-01T00:47:08.699Z,101063.75
2022-11-01T00:49:37.879Z,101057.38
2022-11-01T00:52:07.058Z,101065.19
2022-11-01T00:54:36.105Z,101030.66
2022-11-01T00:57:06.244Z,101064.41
2022-11-01T00:59:38.305Z,101078.47
2022-11-01T01:02:10.167Z,101019.81
2022-11-01T01:04:43.316Z,101065.19
2022-11-01T01:07:13.584Z,101002.47
2022-11-01T01:09:42.766Z,101060.34
2022-11-01T01:12:13.295Z,101069.00
2022-11-01T01:14:42.483Z,101043.88
2022-11-01T01:17:12.009Z,101054.13
2022-11-01T01:19:41.200Z,101069.00
2022-11-01T01:22:10.088Z,101058.69
2022-11-01T01:24:44.922Z,101057.56
2022-11-01T01:27:15.977Z,101060.41
2022-11-01T01:29:45.573Z,101045.25
2022-11-01T01:32:15.088Z,101081.78
2022-11-01T01:34:44.453Z,101061.66
2022-11-01T01:37:16.447Z,101067.75
2022-11-01T01:39:45.609Z,101060.56
2022-11-01T01:42:21.289Z,101055.41
2022-11-01T01:45:31.952Z,101042.75
2022-11-01T01:48:11.105Z,101044.66
2022-11-01T01:50:44.954Z,101040.19
2022-11-01T01:53:19.058Z,101052.50
2022-11-01T01:55:50.248Z,101060.06
2022-11-01T01:58:25.179Z,101050.69
2022-11-01T02:00:55.135Z,101066.97
2022-11-01T02:03:28.568Z,101061.88
2022-11-01T02:06:01.738Z,101072.53
2022-11-01T02:08:31.438Z,101067.97
2022-11-01T02:11:03.750Z,101074.13
2022-11-01T02:13:34.839Z,101069.81
2022-11-01T02:16:16.238Z,101068.72
2022-11-01T02:18:49.456Z,101059.28
2022-11-01T02:21:51.238Z,101054.03
2022-11-01T02:24:51.216Z,101052.66
2022-11-01T02:27:26.444Z,101073.22
2022-11-01T02:30:16.169Z,101076.16
2022-11-01T02:33:04.182Z,101075.97
2022-11-01T02:35:47.598Z,101073.69
2022-11-01T02:38:24.254Z,101074.63
2022-11-01T02:41:01.462Z,101072.75
2022-11-01T02:43:35.717Z,101076.50
2022-11-01T02:46:21.200Z,101000.81
2022-11-01T02:48:52.234Z,101080.78
2022-11-01T02:51:23.752Z,101082.31
2022-11-01T02:53:52.893Z,101082.56
2022-11-01T02:56:23.575Z,101030.19
2022-11-01T02:58:53.895Z,101075.91
2022-11-01T03:01:26.118Z,101097.03
2022-11-01T03:03:59.081Z,101083.78
2022-11-01T03:06:34.242Z,101080.47
2022-11-01T03:09:07.452Z,101081.56
2022-11-01T03:11:45.394Z,100991.19
2022-11-01T03:14:24.934Z,101092.38
2022-11-01T03:17:00.653Z,101093.00
2022-11-01T03:19:44.513Z,101095.38
2022-11-01T03:22:17.235Z,101095.13
2022-11-01T03:24:51.000Z,101095.41
2022-11-01T03:27:25.634Z,101091.47
2022-11-01T03:29:59.649Z,101084.38
2022-11-01T03:32:34.053Z,101045.78
2022-11-01T03:35:05.651Z,101086.28
2022-11-01T03:37:37.113Z,101076.88
2022-11-01T03:40:09.648Z,101082.84
2022-11-01T03:42:40.345Z,101063.84
2022-11-01T03:45:12.687Z,101094.19
2022-11-01T03:47:41.933Z,101078.41
2022-11-01T03:50:20.200Z,101077.72
2022-11-01T03:52:49.881Z,101075.91
2022-11-01T03:55:20.508Z,100851.97
2022-11-01T03:57:50.280Z,101094.09
2022-11-01T04:00:21.846Z,101067.25
2022-11-01T04:02:51.267Z,101101.16
2022-11-01T04:05:22.611Z,101076.00
2022-11-01T04:07:52.353Z,101087.38
2022-11-01T04:10:22.968Z,101068.22
2022-11-01T04:12:52.622Z,101089.44
2022-11-01T04:15:40.143Z,101097.63
2022-11-01T04:18:35.277Z,101105.56
2022-11-01T04:21:09.006Z,101105.41
2022-11-01T04:23:38.595Z,101115.31
2022-11-01T04:26:09.087Z,101098.84
2022-11-01T04:28:38.445Z,101102.28
2022-11-01T04:31:07.695Z,101106.63
2022-11-01T04:33:36.818Z,101085.91
2022-11-01T04:36:08.420Z,101101.72
2022-11-01T04:38:37.467Z,101101.72
2022-11-01T04:41:06.687Z,101113.00
2022-11-01T04:43:36.055Z,101115.75
2022-11-01T04:46:05.173Z,101121.06
2022-11-01T04:48:35.085Z,101125.13
2022-11-01T04:51:04.271Z,101121.72
2022-11-01T04:53:34.566Z,101102.50
2022-11-01T04:56:04.489Z,101069.06
2022-11-01T04:58:34.495Z,101125.25
2022-11-01T05:01:07.320Z,101074.97
2022-11-01T05:03:37.399Z,101122.25
2022-11-01T05:06:07.238Z,101115.97
2022-11-01T05:08:37.888Z,101111.69
2022-11-01T05:11:07.240Z,101119.84
2022-11-01T05:13:36.428Z,101106.91
2022-11-01T05:16:18.975Z,101110.25
2022-11-01T05:18:49.524Z,101104.94
2022-11-01T05:21:18.867Z,101119.53
2022-11-01T05:23:50.052Z,101086.91
2022-11-01T05:26:19.054Z,101123.03
2022-11-01T05:28:48.158Z,101128.16
2022-11-01T05:31:17.186Z,101130.59
2022-11-01T05:33:46.906Z,101138.34
2022-11-01T05:36:16.658Z,101105.81
2022-11-01T05:38:45.651Z,101130.78
2022-11-01T05:41:16.762Z,101099.81
2022-11-01T05:43:46.308Z,101076.16
2022-11-01T05:46:15.615Z,101086.59
2022-11-01T05:48:45.666Z,101124.44
2022-11-01T05:51:14.399Z,101132.44
2022-11-01T05:53:43.648Z,101113.69
2022-11-01T05:56:13.759Z,101103.59
2022-11-01T05:58:44.042Z,101087.31
2022-11-01T06:01:13.127Z,101125.72
2022-11-01T06:03:42.427Z,101108.41
2022-11-01T06:06:12.259Z,101091.84
2022-11-01T06:08:41.317Z,101115.59
2022-11-01T06:11:11.428Z,101133.53
2022-11-01T06:13:40.468Z,101130.75
2022-11-01T06:16:11.133Z,101135.34
2022-11-01T06:18:40.293Z,101115.25
2022-11-01T06:21:09.382Z,101125.34
2022-11-01T06:23:40.213Z,101139.69
2022-11-01T06:26:09.415Z,101131.56
2022-11-01T06:28:38.912Z,101123.81
2022-11-01T06:31:07.968Z,101132.81
2022-11-01T06:33:38.796Z,101121.91
2022-11-01T06:36:08.509Z,101129.28
2022-11-01T06:38:37.858Z,101084.16
2022-11-01T06:41:06.922Z,101138.06
2022-11-01T06:43:36.172Z,101146.88
2022-11-01T06:46:05.357Z,101149.03
2022-11-01T06:48:34.652Z,101123.50
2022-11-01T06:51:06.241Z,101125.03
2022-11-01T06:53:35.439Z,101136.34
2022-11-01T06:56:04.793Z,101121.13
2022-11-01T06:58:34.053Z,101148.25
2022-11-01T07:01:03.435Z,101123.69
2022-11-01T07:03:32.802Z,101124.13
2022-11-01T07:06:02.029Z,101061.97
2022-11-01T07:08:32.572Z,101131.03
2022-11-01T07:11:01.876Z,101122.19
2022-11-01T07:13:34.132Z,101128.00
2022-11-01T07:16:04.310Z,101134.16
2022-11-01T07:18:34.671Z,101133.44
2022-11-01T07:21:05.405Z,101102.72
2022-11-01T07:23:35.900Z,101132.69
2022-11-01T07:26:05.482Z,101128.44
2022-11-01T07:28:35.328Z,101133.59
2022-11-01T07:31:04.794Z,101134.88
2022-11-01T07:33:34.225Z,101132.41
2022-11-01T07:36:03.847Z,101138.75
2022-11-01T07:38:33.391Z,101133.06
2022-11-01T07:41:04.884Z,101121.44
2022-11-01T07:43:35.788Z,101100.22
2022-11-01T07:46:07.408Z,101133.38
2022-11-01T07:48:37.185Z,101118.44
2022-11-01T07:51:07.677Z,101116.34
2022-11-01T07:53:36.828Z,101130.66
2022-11-01T07:56:08.659Z,101021.75
2022-11-01T07:58:37.866Z,101131.75
2022-11-01T08:01:07.250Z,101113.75
2022-11-01T08:03:36.469Z,101124.38
2022-11-01T08:06:05.829Z,101077.44
2022-11-01T08:08:35.080Z,101122.13
2022-11-01T08:11:04.456Z,101118.22
2022-11-01T08:13:34.668Z,101118.09
2022-11-01T08:16:03.737Z,101111.03
2022-11-01T08:18:32.901Z,101115.97
2022-11-01T08:21:01.992Z,101067.22
2022-11-01T08:23:31.161Z,101093.59
2022-11-01T08:26:00.307Z,101100.63
2022-11-01T08:28:30.633Z,101105.59
2022-11-01T08:31:01.116Z,101094.19
2022-11-01T08:33:30.058Z,101083.25
2022-11-01T08:35:59.293Z,101090.97
2022-11-01T08:38:29.167Z,101095.56
2022-11-01T08:41:00.045Z,101074.47
2022-11-01T08:43:29.476Z,101084.84
2022-11-01T08:46:01.227Z,101095.47
2022-11-01T08:48:31.077Z,101071.75
2022-11-01T08:51:00.315Z,101080.59
2022-11-01T08:53:29.635Z,101055.91
2022-11-01T08:55:59.191Z,101080.22
2022-11-01T08:58:28.653Z,101080.13
2022-11-01T09:00:57.735Z,101066.94
2022-11-01T09:03:28.903Z,101069.25
2022-11-01T09:05:59.224Z,101072.75
2022-11-01T09:08:28.698Z,101074.03
2022-11-01T09:10:59.799Z,101072.25
2022-11-01T09:13:29.188Z,101049.00
2022-11-01T09:16:02.210Z,101032.34
2022-11-01T09:18:33.409Z,101070.59
2022-11-01T09:21:03.091Z,101066.84
2022-11-01T09:23:32.505Z,101064.78
2022-11-01T09:26:05.265Z,101063.22
2022-11-01T09:28:35.113Z,101032.47
2022-11-01T09:31:19.857Z,101072.00
2022-11-01T09:33:51.334Z,101049.81
2022-11-01T09:36:21.353Z,101070.31
2022-11-01T09:38:50.335Z,101052.56
2022-11-01T09:41:30.111Z,101060.41
2022-11-01T09:44:02.556Z,101064.41
2022-11-01T09:46:36.965Z,100971.63
2022-11-01T09:49:08.836Z,101055.66
2022-11-01T09:51:37.817Z,101039.47
2022-11-01T09:54:08.594Z,101037.00
2022-11-01T09:56:44.469Z,101045.75
2022-11-01T09:59:25.784Z,101041.81
2022-11-01T10:02:09.698Z,101036.00
2022-11-01T10:05:17.692Z,101005.88
2022-11-01T10:08:01.354Z,101023.25
2022-11-01T10:10:39.490Z,101026.47
2022-11-01T10:13:25.769Z,101018.69
2022-11-01T10:16:02.407Z,101001.91
2022-11-01T10:18:33.201Z,101024.97
2022-11-01T10:21:11.400Z,101011.75
2022-11-01T10:23:47.003Z,101007.00
2022-11-01T10:26:21.345Z,100998.50
2022-11-01T10:28:56.177Z,100999.22
2022-11-01T10:31:28.825Z,101001.25
2022-11-01T10:34:03.809Z,100989.00
2022-11-01T10:55:42.785Z,100987.97
2022-11-01T10:58:20.504Z,100986.25
2022-11-01T11:00:50.359Z,100975.09
2022-11-01T11:03:23.963Z,100958.38
2022-11-01T11:05:55.794Z,100958.69
2022-11-01T11:08:26.222Z,100991.34
2022-11-01T11:11:00.809Z,100968.59
2022-11-01T11:13:32.574Z,100971.56
2022-11-01T11:16:05.685Z,100958.59
2022-11-01T11:18:39.756Z,100970.81
2022-11-01T11:21:11.970Z,100978.44
2022-11-01T11:23:43.838Z,100973.28
2022-11-01T11:26:16.966Z,100956.31
2022-11-01T11:28:49.188Z,100970.81
2022-11-01T11:31:24.948Z,100960.38
2022-11-01T11:33:58.373Z,100962.94
2022-11-01T11:36:29.701Z,100792.44
2022-11-01T11:38:59.267Z,100960.44
2022-11-01T11:41:31.632Z,100978.72
2022-11-01T11:44:00.778Z,100976.59
2022-11-01T11:46:30.437Z,100974.09
2022-11-01T11:49:03.156Z,100973.75
2022-11-01T11:51:35.665Z,100959.84
2022-11-01T11:54:17.995Z,100985.81
2022-11-01T11:56:51.667Z,100980.81
2022-11-01T11:59:26.975Z,100966.47
2022-11-01T12:02:00.416Z,100979.59
2022-11-01T12:04:36.029Z,100974.78
2022-11-01T12:07:07.792Z,100979.47
2022-11-01T12:09:45.313Z,100977.34
2022-11-01T12:12:21.707Z,100985.06
2022-11-01T12:14:51.181Z,100960.56
2022-11-01T12:17:45.452Z,100950.00
2022-11-01T12:20:38.833Z,100974.56
2022-11-01T12:23:15.863Z,100851.41
2022-11-01T12:25:47.228Z,100980.31
2022-11-01T12:28:22.203Z,100956.38
2022-11-01T12:30:56.082Z,100978.41
2022-11-01T12:33:35.354Z,100949.09
2022-11-01T12:36:04.524Z,100948.97
2022-11-01T12:38:42.925Z,100985.22
2022-11-01T12:41:28.997Z,100979.91
2022-11-01T12:44:07.151Z,100954.47
2022-11-01T12:46:41.487Z,100968.19
2022-11-01T12:49:20.891Z,100876.41
2022-11-01T12:51:53.942Z,100939.88
2022-11-01T12:54:27.309Z,100961.13
2022-11-01T12:56:56.925Z,100893.31
2022-11-01T12:59:33.835Z,100878.63
2022-11-01T13:02:14.658Z,100910.88
2022-11-01T13:04:49.842Z,100951.69
2022-11-01T13:07:33.907Z,100938.88
2022-11-01T13:10:12.078Z,100959.59
2022-11-01T13:12:50.720Z,100953.66
2022-11-01T13:15:28.504Z,100954.00
2022-11-01T13:18:06.459Z,100949.22
2022-11-01T13:20:45.177Z,100945.69
2022-11-01T13:23:24.403Z,100952.88
2022-11-01T13:26:01.335Z,100940.38
2022-11-01T13:28:49.211Z,100911.63
2022-11-01T13:31:32.619Z,100905.66
2022-11-01T13:34:17.089Z,100934.72
2022-11-01T13:36:50.544Z,100931.16
2022-11-01T13:39:25.586Z,100928.84
2022-11-01T13:42:02.649Z,100859.78
2022-11-01T13:44:38.788Z,100914.22
2022-11-01T13:47:23.883Z,100916.84
2022-11-01T13:50:23.054Z,100913.09
2022-11-01T13:53:00.210Z,100836.31
2022-11-01T13:55:36.481Z,100905.88
2022-11-01T13:58:06.960Z,100860.63
2022-11-01T14:00:42.736Z,100882.38
2022-11-01T14:03:25.374Z,100874.47
2022-11-01T14:09:31.304Z,100902.91
2022-11-01T16:55:12.480Z,100553.66
2022-11-01T16:57:42.960Z,100801.94
2022-11-01T17:00:14.920Z,100808.78
2022-11-01T17:02:45.469Z,100807.06
2022-11-01T17:05:21.695Z,100802.19
2022-11-01T17:07:50.927Z,100809.53
2022-11-01T17:10:25.839Z,100807.16
2022-11-01T17:12:57.962Z,100749.88
2022-11-01T17:15:27.997Z,100782.94
2022-11-01T17:17:57.537Z,100794.81
2022-11-01T17:20:29.320Z,100754.03
2022-11-01T17:22:59.573Z,100797.19
2022-11-01T17:26:02.550Z,100788.47
2022-11-01T17:28:31.531Z,100814.41
2022-11-01T17:31:06.137Z,100698.38
2022-11-01T17:33:36.664Z,100784.97
2022-11-01T17:36:06.467Z,100784.97
2022-11-01T17:38:36.670Z,100787.03
2022-11-01T17:41:18.527Z,100711.47
2022-11-01T17:43:47.596Z,100756.19
2022-11-01T17:46:20.019Z,100681.00
2022-11-01T17:48:54.058Z,100739.56
2022-11-01T17:51:25.037Z,100501.31
2022-11-01T17:53:55.475Z,100782.44
2022-11-01T17:56:26.557Z,100783.22
2022-11-01T17:58:56.672Z,100783.63
2022-11-01T18:01:26.412Z,100635.59
2022-11-01T18:04:01.306Z,100747.84
2022-11-01T18:06:58.781Z,100773.00
2022-11-01T18:09:28.006Z,100758.31
2022-11-01T18:12:14.249Z,100772.88
2022-11-01T18:14:58.347Z,100717.44
2022-11-01T18:17:49.048Z,100767.28
2022-11-01T18:21:10.325Z,100772.91
2022-11-01T18:23:48.142Z,100679.06
2022-11-01T18:26:50.114Z,100441.72
2022-11-01T18:29:26.569Z,100723.03
2022-11-01T18:32:25.457Z,100582.13
2022-11-01T18:35:01.680Z,100748.88
2022-11-01T18:37:43.047Z,100404.88
2022-11-01T18:40:23.307Z,100531.41
2022-11-01T18:43:02.151Z,100623.47
2022-11-01T18:45:57.853Z,100648.47
2022-11-01T18:48:32.007Z,100584.63
2022-11-01T18:51:11.241Z,100647.22
2022-11-01T18:53:45.248Z,100625.91
2022-11-01T18:56:21.650Z,100684.06
2022-11-01T18:58:52.726Z,100621.06
2022-11-01T19:01:32.519Z,100718.81
2022-11-01T19:04:06.117Z,100743.63
2022-11-01T19:06:35.673Z,100698.91
2022-11-01T19:09:24.641Z,100747.88
2022-11-01T19:12:03.330Z,100680.34
2022-11-01T19:14:33.750Z,100428.94
2022-11-01T19:17:05.539Z,100600.00
2022-11-01T19:19:46.274Z,100595.81
2022-11-01T19:22:39.261Z,100590.38
2022-11-01T19:25:20.181Z,100717.38
2022-11-01T19:27:52.130Z,100587.34
2022-11-01T19:30:26.776Z,100716.75
2022-11-01T19:33:08.068Z,100713.81
2022-11-01T19:35:38.948Z,100653.59
2022-11-01T19:38:16.618Z,100717.38
2022-11-01T19:40:49.914Z,100719.28
2022-11-01T19:43:22.681Z,100720.53
2022-11-01T19:46:29.919Z,100716.09
2022-11-01T19:49:05.892Z,100605.75
2022-11-01T19:52:34.401Z,100717.78
2022-11-01T19:55:32.674Z,100680.84
2022-11-01T19:58:25.050Z,100505.75
2022-11-01T20:01:12.970Z,100714.88
2022-11-01T20:03:46.633Z,100674.88
2022-11-01T20:06:31.092Z,100717.28
2022-11-01T20:09:06.545Z,100699.13
2022-11-01T20:11:36.210Z,100695.50
2022-11-01T20:14:07.346Z,100722.50
2022-11-01T20:16:37.556Z,100733.19
2022-11-01T20:19:06.913Z,100659.38
2022-11-01T20:21:40.519Z,100726.06
2022-11-01T20:24:11.037Z,100718.53
2022-11-01T20:26:41.051Z,100707.78
2022-11-01T20:29:11.362Z,100720.44
2022-11-01T20:31:43.770Z,100724.03
2022-11-01T20:34:13.575Z,100703.84
2022-11-01T20:37:08.103Z,100716.69
2022-11-01T20:39:38.660Z,100710.00
2022-11-01T20:42:08.602Z,100707.78
2022-11-01T20:44:50.476Z,100619.53
2022-11-01T20:47:41.441Z,100685.03
2022-11-01T20:50:17.699Z,100674.69
2022-11-01T20:52:51.170Z,100691.03
2022-11-01T20:55:24.734Z,100639.41
2022-11-01T20:57:56.870Z,100691.03
2022-11-01T21:00:28.862Z,100690.03
2022-11-01T21:03:00.979Z,100655.03
2022-11-01T21:05:34.929Z,100696.31
2022-11-01T21:08:19.752Z,100688.47
2022-11-01T21:10:53.306Z,100684.34
2022-11-01T21:13:27.918Z,100681.09
2022-11-01T21:15:59.211Z,100667.44
2022-11-01T21:18:42.502Z,100666.22
2022-11-01T21:21:46.418Z,100663.06
2022-11-01T21:24:30.922Z,100669.75
2022-11-01T21:27:10.233Z,100675.13
2022-11-01T21:29:43.066Z,100629.13
2022-11-01T21:32:25.380Z,100657.19
2022-11-01T21:34:55.130Z,100636.81
2022-11-01T21:37:29.474Z,100659.06
2022-11-01T21:40:06.648Z,100643.81
2022-11-01T21:42:38.514Z,100659.56
2022-11-01T21:45:37.877Z,100643.66
2022-11-01T21:48:21.714Z,100653.91
2022-11-01T21:50:50.668Z,100625.53
2022-11-01T21:53:19.737Z,100643.31
2022-11-01T21:55:50.768Z,100572.56
2022-11-01T21:58:21.850Z,100612.84
2022-11-01T22:00:51.371Z,100627.59
2022-11-01T22:03:20.778Z,100606.22
2022-11-01T22:05:49.652Z,100612.03
2022-11-01T22:08:20.924Z,100615.38
2022-11-01T22:10:52.911Z,100617.59
2022-11-01T22:13:22.022Z,100620.25
2022-11-01T22:15:51.104Z,100597.00
2022-11-01T22:18:24.981Z,100603.09
2022-11-01T22:20:54.429Z,100562.59
2022-11-01T22:23:42.027Z,100582.66
2022-11-01T22:26:12.696Z,100591.03
2022-11-01T22:28:41.686Z,100529.00
2022-11-01T22:31:10.778Z,100588.97
2022-11-01T22:33:40.676Z,100570.38
2022-11-01T22:36:17.201Z,100572.38
2022-11-01T22:38:46.059Z,100566.66
2022-11-01T22:41:18.070Z,100554.88
2022-11-01T22:43:49.751Z,100530.72
2022-11-01T22:46:22.545Z,100501.84
2022-11-01T22:48:54.210Z,100552.22
2022-11-01T22:51:26.589Z,100540.09
2022-11-01T22:53:59.344Z,100546.28
2022-11-01T22:56:31.003Z,100560.78
2022-11-01T22:58:59.900Z,100538.41
2022-11-01T23:01:30.674Z,100547.28
2022-11-01T23:04:03.561Z,100558.25
2022-11-01T23:06:34.463Z,100537.75
2022-11-01T23:09:14.073Z,100514.53
2022-11-01T23:12:06.802Z,100523.59
2022-11-01T23:14:39.952Z,100500.25
2022-11-01T23:17:19.310Z,100529.50
2022-11-01T23:19:50.923Z,100488.59
2022-11-01T23:22:22.592Z,100525.50
2022-11-01T23:24:54.076Z,100510.41
2022-11-01T23:27:26.852Z,100501.59
2022-11-01T23:29:56.951Z,100517.41
2022-11-01T23:32:26.276Z,100486.97
2022-11-01T23:35:11.136Z,100508.53
2022-11-01T23:37:40.034Z,100490.06
2022-11-01T23:40:16.250Z,100513.72
2022-11-01T23:42:48.415Z,100504.59
2022-11-01T23:45:29.005Z,100492.13
2022-11-01T23:47:58.608Z,100420.78
2022-11-01T23:50:31.570Z,100485.78
2022-11-01T23:53:03.411Z,100461.66
2022-11-01T23:55:34.817Z,100489.38
2022-11-01T23:58:08.038Z,100479.78
